createdAt,value
2023-03-15T00:02:06.869Z,6.70
2023-03-15T00:04:34.614Z,5.45
2023-03-15T00:07:03.125Z,12.77
2023-03-15T00:09:32.216Z,11.15
2023-03-15T00:11:59.906Z,6.22
2023-03-15T00:14:27.632Z,14.48
2023-03-15T00:16:55.424Z,8.15
2023-03-15T00:19:23.123Z,9.88
2023-03-15T00:21:50.864Z,7.10
2023-03-15T00:24:18.570Z,9.02
2023-03-15T00:26:47.657Z,5.00
2023-03-15T00:29:15.392Z,13.43
2023-03-15T00:31:43.111Z,12.23
2023-03-15T00:34:13.967Z,6.50
2023-03-15T00:36:43.587Z,6.07
2023-03-15T00:39:11.852Z,7.72
2023-03-15T00:41:40.578Z,9.55
2023-03-15T00:44:09.682Z,4.93
2023-03-15T00:46:37.422Z,8.35
2023-03-15T00:49:05.583Z,7.25
2023-03-15T00:51:33.801Z,8.63
2023-03-15T00:54:01.472Z,6.13
2023-03-15T00:56:30.941Z,4.68
2023-03-15T00:58:59.701Z,5.32
2023-03-15T01:01:30.647Z,8.73
2023-03-15T01:03:58.862Z,5.85
2023-03-15T01:06:29.299Z,6.03
2023-03-15T01:08:57.471Z,7.15
2023-03-15T01:11:27.010Z,14.82
2023-03-15T01:13:56.515Z,8.32
2023-03-15T01:16:24.991Z,11.27
2023-03-15T01:18:54.278Z,13.23
2023-03-15T01:21:23.368Z,7.90
2023-03-15T01:23:51.425Z,8.00
2023-03-15T01:26:22.955Z,9.20
2023-03-15T01:28:50.857Z,10.15
2023-03-15T01:31:23.137Z,4.10
2023-03-15T01:33:50.944Z,7.50
2023-03-15T01:36:20.498Z,8.13
2023-03-15T01:38:49.483Z,13.30
2023-03-15T01:41:20.859Z,9.93
2023-03-15T01:43:48.741Z,8.60
2023-03-15T01:46:24.657Z,9.20
2023-03-15T01:49:05.594Z,8.35
2023-03-15T01:51:43.667Z,9.73
2023-03-15T01:54:16.770Z,13.43
2023-03-15T01:56:50.715Z,8.93
2023-03-15T01:59:23.229Z,8.80
2023-03-15T02:01:54.402Z,6.50
2023-03-15T02:04:26.678Z,6.20
2023-03-15T02:07:00.508Z,11.77
2023-03-15T02:09:38.949Z,9.23
2023-03-15T02:12:06.929Z,10.25
2023-03-15T02:14:35.576Z,5.30
2023-03-15T02:17:05.550Z,5.95
2023-03-15T02:19:45.402Z,9.63
2023-03-15T02:22:29.608Z,7.05
2023-03-15T02:25:04.447Z,6.20
2023-03-15T02:27:36.443Z,7.97
2023-03-15T02:30:06.384Z,8.85
2023-03-15T02:32:34.556Z,6.22
2023-03-15T02:35:02.310Z,7.47
2023-03-15T02:37:31.392Z,4.30
2023-03-15T02:39:59.215Z,8.98
2023-03-15T02:42:27.353Z,5.43
2023-03-15T02:44:59.725Z,9.18
2023-03-15T02:47:31.210Z,6.13
2023-03-15T02:49:59.226Z,5.50
2023-03-15T02:52:27.254Z,9.88
2023-03-15T02:54:55.811Z,5.88
2023-03-15T02:57:23.537Z,8.15
2023-03-15T02:59:51.914Z,9.30
2023-03-15T03:02:21.138Z,7.88
2023-03-15T03:04:49.300Z,6.35
2023-03-15T03:07:19.907Z,8.93
2023-03-15T03:09:51.681Z,6.15
2023-03-15T03:12:21.305Z,8.80
2023-03-15T03:14:51.025Z,8.65
2023-03-15T03:17:23.637Z,11.85
2023-03-15T03:19:52.537Z,8.48
2023-03-15T03:22:25.914Z,10.25
2023-03-15T03:24:53.668Z,14.98
2023-03-15T03:27:21.396Z,13.40
2023-03-15T03:29:51.213Z,10.18
2023-03-15T03:32:19.054Z,12.57
2023-03-15T03:34:49.203Z,11.32
2023-03-15T03:37:21.577Z,11.77
2023-03-15T03:39:58.232Z,8.75
2023-03-15T03:42:26.290Z,9.38
2023-03-15T03:44:54.562Z,8.68
2023-03-15T03:47:23.913Z,9.93
2023-03-15T03:49:53.055Z,7.20
2023-03-15T03:52:20.922Z,9.40
2023-03-15T03:54:50.924Z,7.25
2023-03-15T03:57:18.698Z,9.32
2023-03-15T03:59:46.544Z,8.23
2023-03-15T04:02:14.367Z,8.15
2023-03-15T04:04:50.249Z,7.80
2023-03-15T04:07:21.119Z,9.02
2023-03-15T04:09:49.276Z,10.68
2023-03-15T04:12:18.628Z,8.52
2023-03-15T04:14:47.494Z,6.90
2023-03-15T04:17:16.265Z,8.45
2023-03-15T04:19:46.998Z,9.00
2023-03-15T04:22:17.702Z,8.23
2023-03-15T04:25:02.545Z,9.20
2023-03-15T04:27:58.490Z,8.00
2023-03-15T04:30:45.133Z,8.52
2023-03-15T04:33:24.522Z,11.13
2023-03-15T04:36:02.848Z,8.07
2023-03-15T04:38:49.084Z,9.98
2023-03-15T04:41:34.785Z,8.77
2023-03-15T04:44:11.163Z,9.73
2023-03-15T04:46:53.911Z,9.30
2023-03-15T04:49:29.811Z,13.38
2023-03-15T04:52:12.175Z,12.85
2023-03-15T04:54:59.286Z,10.32
2023-03-15T04:57:48.679Z,12.20
2023-03-15T05:00:36.266Z,11.73
2023-03-15T05:03:19.888Z,10.48
2023-03-15T05:06:08.161Z,12.05
2023-03-15T05:08:55.065Z,11.40
2023-03-15T05:11:48.882Z,11.55
2023-03-15T05:17:12.602Z,10.82
2023-03-15T05:23:17.919Z,9.90
2023-03-15T05:25:55.553Z,7.47
2023-03-15T05:28:45.239Z,12.52
2023-03-15T05:31:36.794Z,8.45
2023-03-15T05:34:36.797Z,7.25
2023-03-15T05:37:35.715Z,11.98
2023-03-15T05:40:21.993Z,12.20
2023-03-15T05:43:04.866Z,9.95
2023-03-15T05:45:51.063Z,11.25
2023-03-15T05:48:33.871Z,10.18
2023-03-15T05:51:16.245Z,10.93
2023-03-15T05:54:02.425Z,9.70
2023-03-15T05:56:48.656Z,12.35
2023-03-15T05:59:39.117Z,11.43
2023-03-15T06:02:41.261Z,12.52
2023-03-15T06:05:29.148Z,8.90
2023-03-15T06:07:58.492Z,11.82
2023-03-15T06:10:26.544Z,9.20
2023-03-15T06:12:56.153Z,7.53
2023-03-15T06:15:24.851Z,8.48
2023-03-15T06:17:54.207Z,8.48
2023-03-15T06:20:21.956Z,11.40
2023-03-15T06:22:51.026Z,9.95
2023-03-15T06:25:28.712Z,11.57
2023-03-15T06:27:56.414Z,10.55
2023-03-15T06:30:26.132Z,10.93
2023-03-15T06:32:57.685Z,9.60
2023-03-15T06:35:25.622Z,11.40
2023-03-15T06:37:54.759Z,11.52
2023-03-15T06:40:22.719Z,11.48
2023-03-15T06:42:51.186Z,10.65
2023-03-15T06:45:21.062Z,15.25
2023-03-15T06:47:49.938Z,10.05
2023-03-15T06:50:18.930Z,11.63
2023-03-15T06:52:46.680Z,15.73
2023-03-15T06:55:18.190Z,11.00
2023-03-15T06:57:46.632Z,9.52
2023-03-15T07:00:17.136Z,11.85
2023-03-15T07:02:44.966Z,9.15
2023-03-15T07:05:12.834Z,9.23
2023-03-15T07:07:40.666Z,7.22
2023-03-15T07:10:09.059Z,8.07
2023-03-15T07:12:38.135Z,11.90
2023-03-15T07:15:06.557Z,14.18
2023-03-15T07:17:34.584Z,9.73
2023-03-15T07:20:02.693Z,10.30
2023-03-15T07:22:30.638Z,11.38
2023-03-15T07:24:58.358Z,10.35
2023-03-15T07:27:26.242Z,16.85
2023-03-15T07:29:55.613Z,8.02
2023-03-15T07:32:23.403Z,14.63
2023-03-15T07:34:51.214Z,8.68
2023-03-15T07:37:19.114Z,10.05
2023-03-15T07:39:46.884Z,8.57
2023-03-15T07:42:14.840Z,15.15
2023-03-15T07:44:44.009Z,11.23
2023-03-15T07:47:13.245Z,13.20
2023-03-15T07:49:41.031Z,9.88
2023-03-15T07:52:09.691Z,12.98
2023-03-15T07:54:37.410Z,11.65
2023-03-15T07:57:05.899Z,8.77
2023-03-15T07:59:33.663Z,8.18
2023-03-15T08:02:02.907Z,10.63
2023-03-15T08:04:33.947Z,6.30
2023-03-15T08:07:03.401Z,10.63
2023-03-15T08:09:33.001Z,11.75
2023-03-15T08:12:00.721Z,8.82
2023-03-15T08:14:29.098Z,7.63
2023-03-15T08:16:56.845Z,9.32
2023-03-15T08:19:24.807Z,12.15
2023-03-15T08:21:54.065Z,11.07
2023-03-15T08:24:22.509Z,11.27
2023-03-15T08:26:51.128Z,10.70
2023-03-15T08:29:18.855Z,11.30
2023-03-15T08:31:46.632Z,7.22
2023-03-15T08:34:16.072Z,9.25
2023-03-15T08:36:43.772Z,10.80
2023-03-15T08:39:12.894Z,6.28
2023-03-15T08:41:41.214Z,9.57
2023-03-15T08:44:08.951Z,14.93
2023-03-15T08:46:37.012Z,10.88
2023-03-15T08:49:04.754Z,12.52
2023-03-15T08:51:33.603Z,12.60
2023-03-15T08:54:03.839Z,10.27
2023-03-15T08:56:33.716Z,10.50
2023-03-15T08:59:01.528Z,16.17
2023-03-15T09:01:30.326Z,11.57
2023-03-15T09:03:58.251Z,9.02
2023-03-15T09:06:26.299Z,6.80
2023-03-15T09:08:54.811Z,9.00
2023-03-15T09:11:23.408Z,9.40
2023-03-15T09:13:52.456Z,11.60
2023-03-15T09:16:20.241Z,9.20
2023-03-15T09:18:48.015Z,10.15
2023-03-15T09:21:15.734Z,8.88
2023-03-15T09:23:43.492Z,11.10
2023-03-15T09:26:11.189Z,14.60
2023-03-15T09:28:38.878Z,7.15
2023-03-15T09:31:08.658Z,8.60
2023-03-15T09:33:36.735Z,9.43
2023-03-15T09:36:04.902Z,7.82
2023-03-15T09:38:32.863Z,9.45
2023-03-15T09:41:01.524Z,10.52
2023-03-15T09:43:58.856Z,6.88
2023-03-15T09:46:32.048Z,7.85
2023-03-15T09:49:06.167Z,12.40
2023-03-15T09:51:43.424Z,9.43
2023-03-15T09:54:14.819Z,11.35
2023-03-15T09:56:49.971Z,8.02
2023-03-15T09:59:22.653Z,9.52
2023-03-15T10:01:55.996Z,8.98
2023-03-15T10:04:29.162Z,8.40
2023-03-15T10:06:59.041Z,10.80
2023-03-15T10:09:32.992Z,11.38
2023-03-15T10:12:05.279Z,11.93
2023-03-15T10:14:51.641Z,11.55
2023-03-15T10:19:51.871Z,8.18
2023-03-15T10:22:26.865Z,7.68
2023-03-15T10:24:59.376Z,10.00
2023-03-15T10:27:33.239Z,7.30
2023-03-15T10:30:02.516Z,8.10
2023-03-15T10:32:39.870Z,6.40
2023-03-15T10:35:15.482Z,8.63
2023-03-15T10:37:43.596Z,10.20
2023-03-15T10:40:15.907Z,5.60
2023-03-15T10:42:45.385Z,5.82
2023-03-15T10:45:20.946Z,3.47
2023-03-15T10:47:59.644Z,6.78
2023-03-15T10:50:29.653Z,10.23
2023-03-15T10:52:58.744Z,4.28
2023-03-15T10:55:33.819Z,7.38
2023-03-15T10:58:19.523Z,6.35
2023-03-15T11:00:51.683Z,5.43
2023-03-15T11:03:23.498Z,6.57
2023-03-15T11:05:53.235Z,6.88
2023-03-15T11:08:22.913Z,6.55
2023-03-15T11:10:57.288Z,8.50
2023-03-15T11:13:26.806Z,8.65
2023-03-15T11:16:01.433Z,8.43
2023-03-15T11:18:34.728Z,6.43
2023-03-15T11:21:06.642Z,7.03
2023-03-15T11:23:37.610Z,8.73
2023-03-15T11:26:06.687Z,5.97
2023-03-15T11:28:37.392Z,5.18
2023-03-15T11:31:06.269Z,2.50
2023-03-15T11:33:42.490Z,5.57
2023-03-15T11:36:16.836Z,3.40
2023-03-15T11:38:46.096Z,6.50
2023-03-15T11:41:31.039Z,5.07
2023-03-15T11:44:10.872Z,5.10
2023-03-15T11:46:44.595Z,4.15
2023-03-15T11:49:19.005Z,4.65
2023-03-15T11:51:47.060Z,6.63
2023-03-15T11:54:16.642Z,6.07
2023-03-15T11:56:53.966Z,5.32
2023-03-15T11:59:26.517Z,3.20
2023-03-15T12:01:59.150Z,4.28
2023-03-15T12:04:44.358Z,3.22
2023-03-15T12:08:08.815Z,3.40
2023-03-15T12:10:46.828Z,3.93
2023-03-15T12:13:24.713Z,2.38
2023-03-15T12:15:53.383Z,3.08
2023-03-15T12:18:32.119Z,2.38
2023-03-15T12:21:17.578Z,4.25
2023-03-15T12:23:49.609Z,3.60
2023-03-15T12:26:33.604Z,3.55
2023-03-15T12:29:09.850Z,3.80
2023-03-15T12:31:55.511Z,7.03
2023-03-15T12:34:31.603Z,4.80
2023-03-15T12:37:05.869Z,4.97
2023-03-15T12:39:40.732Z,4.90
2023-03-15T12:42:13.872Z,10.43
2023-03-15T12:44:43.703Z,4.35
2023-03-15T12:47:12.590Z,7.88
2023-03-15T12:49:44.310Z,4.63
2023-03-15T12:52:36.399Z,5.13
2023-03-15T12:55:13.210Z,2.53
2023-03-15T12:57:48.466Z,3.35
2023-03-15T13:00:20.592Z,7.90
2023-03-15T13:02:51.800Z,6.65
2023-03-15T13:05:26.857Z,5.65
2023-03-15T13:08:05.529Z,5.13
2023-03-15T13:10:56.206Z,2.92
2023-03-15T13:13:36.656Z,3.30
2023-03-15T13:16:23.262Z,6.50
2023-03-15T13:18:59.691Z,3.80
2023-03-15T13:21:32.531Z,5.65
2023-03-15T13:24:02.404Z,4.40
2023-03-15T13:26:38.858Z,4.10
2023-03-15T13:29:17.373Z,1.90
2023-03-15T13:31:46.648Z,2.90
2023-03-15T13:34:17.365Z,4.38
2023-03-15T13:36:47.703Z,3.92
2023-03-15T13:39:25.780Z,2.45
2023-03-15T13:41:59.249Z,3.50
2023-03-15T13:44:27.950Z,5.47
2023-03-15T13:46:56.095Z,4.53
2023-03-15T13:49:24.361Z,4.80
2023-03-15T13:51:54.412Z,3.97
2023-03-15T13:54:27.425Z,4.13
2023-03-15T13:56:59.513Z,2.83
2023-03-15T13:59:32.562Z,5.45
2023-03-15T14:02:02.621Z,4.43
2023-03-15T14:04:32.930Z,4.55
2023-03-15T14:07:19.634Z,2.78
2023-03-15T14:09:48.734Z,4.82
2023-03-15T14:12:19.780Z,3.17
2023-03-15T14:14:51.153Z,2.40
2023-03-15T14:17:25.449Z,2.67
2023-03-15T14:19:55.386Z,5.55
2023-03-15T14:22:23.977Z,3.65
2023-03-15T14:24:53.831Z,3.90
2023-03-15T14:27:23.790Z,5.85
2023-03-15T14:29:54.437Z,5.25
2023-03-15T14:32:28.875Z,6.38
2023-03-15T14:35:02.707Z,4.40
2023-03-15T14:37:36.133Z,4.68
2023-03-15T14:40:20.929Z,4.47
2023-03-15T14:42:49.875Z,3.03
2023-03-15T14:45:19.245Z,2.55
2023-03-15T14:47:56.789Z,4.28
2023-03-15T14:50:27.736Z,4.97
2023-03-15T14:52:57.666Z,3.75
2023-03-15T14:55:31.235Z,6.80
2023-03-15T14:57:58.925Z,3.08
2023-03-15T15:00:27.110Z,3.40
2023-03-15T15:02:56.783Z,2.47
2023-03-15T15:05:27.328Z,2.83
2023-03-15T15:08:01.392Z,2.33
2023-03-15T15:10:31.698Z,4.18
2023-03-15T15:13:05.994Z,8.88
2023-03-15T15:15:53.533Z,4.25
2023-03-15T15:18:23.010Z,3.83
2023-03-15T15:20:54.118Z,3.88
2023-03-15T15:23:24.633Z,3.47
2023-03-15T15:25:57.001Z,5.65
2023-03-15T15:28:34.724Z,2.58
2023-03-15T15:31:03.749Z,3.17
2023-03-15T15:33:31.730Z,4.70
2023-03-15T15:35:59.613Z,4.00
2023-03-15T15:38:33.121Z,4.07
2023-03-15T15:41:02.548Z,2.88
2023-03-15T15:43:33.046Z,5.93
2023-03-15T15:46:01.801Z,4.43
2023-03-15T15:48:29.600Z,4.72
2023-03-15T15:50:57.476Z,6.85
2023-03-15T15:53:25.431Z,5.53
2023-03-15T15:55:53.215Z,3.50
2023-03-15T15:58:22.810Z,4.75
2023-03-15T16:00:50.897Z,2.22
2023-03-15T16:03:19.108Z,3.72
2023-03-15T16:05:46.860Z,3.20
2023-03-15T16:08:22.539Z,2.40
2023-03-15T16:10:50.277Z,3.40
2023-03-15T16:13:18.474Z,3.00
2023-03-15T16:15:47.598Z,4.00
2023-03-15T16:18:16.075Z,4.88
2023-03-15T16:20:43.985Z,5.35
2023-03-15T16:23:18.866Z,4.82
2023-03-15T16:25:48.884Z,3.47
2023-03-15T16:28:16.617Z,2.30
2023-03-15T16:30:46.821Z,7.18
2023-03-15T16:33:17.346Z,6.10
2023-03-15T16:35:45.565Z,1.67
2023-03-15T16:38:16.691Z,1.25
2023-03-15T16:40:46.736Z,4.78
2023-03-15T16:43:15.040Z,4.80
2023-03-15T16:45:42.808Z,5.00
2023-03-15T16:48:11.956Z,1.23
2023-03-15T16:50:42.518Z,3.15
2023-03-15T16:53:13.650Z,5.57
2023-03-15T16:55:41.600Z,3.75
2023-03-15T16:58:19.021Z,3.92
2023-03-15T17:00:48.296Z,5.28
2023-03-15T17:03:17.663Z,4.00
2023-03-15T17:05:48.568Z,7.05
2023-03-15T17:08:19.869Z,3.15
2023-03-15T17:10:47.833Z,4.88
2023-03-15T17:13:18.452Z,1.90
2023-03-15T17:15:46.378Z,2.97
2023-03-15T17:18:17.829Z,2.60
2023-03-15T17:20:49.777Z,5.43
2023-03-15T17:23:20.749Z,2.63
2023-03-15T17:25:49.356Z,5.70
2023-03-15T17:28:17.530Z,3.53
2023-03-15T17:30:45.732Z,2.72
2023-03-15T17:33:13.520Z,5.82
2023-03-15T17:35:45.034Z,6.38
2023-03-15T17:38:18.605Z,2.80
2023-03-15T17:40:46.657Z,7.32
2023-03-15T17:43:16.957Z,4.22
2023-03-15T17:45:44.765Z,4.45
2023-03-15T17:48:12.624Z,4.07
2023-03-15T17:50:43.790Z,2.53
2023-03-15T17:53:16.435Z,4.82
2023-03-15T17:55:45.475Z,4.53
2023-03-15T17:58:18.410Z,4.97
2023-03-15T18:00:47.864Z,5.05
2023-03-15T18:03:16.889Z,4.75
2023-03-15T18:05:45.522Z,4.82
2023-03-15T18:08:18.124Z,5.55
2023-03-15T18:10:47.043Z,4.32
2023-03-15T18:13:17.548Z,4.15
2023-03-15T18:15:45.649Z,5.18
2023-03-15T18:18:13.394Z,3.13
2023-03-15T18:20:41.270Z,5.07
2023-03-15T18:23:12.591Z,4.60
2023-03-15T18:25:41.880Z,3.63
2023-03-15T18:28:09.614Z,4.28
2023-03-15T18:30:37.660Z,5.45
2023-03-15T18:33:05.835Z,5.18
2023-03-15T18:35:35.538Z,4.40
2023-03-15T18:38:04.182Z,5.90
2023-03-15T18:40:33.573Z,6.13
2023-03-15T18:43:05.247Z,6.93
2023-03-15T18:45:35.101Z,5.57
2023-03-15T18:48:02.962Z,7.28
2023-03-15T18:50:31.081Z,5.72
2023-03-15T18:52:59.367Z,7.68
2023-03-15T18:55:27.447Z,7.22
2023-03-15T18:57:56.430Z,6.20
2023-03-15T19:00:29.301Z,7.97
2023-03-15T19:02:59.240Z,7.57
2023-03-15T19:05:27.905Z,4.93
2023-03-15T19:07:55.674Z,4.53
2023-03-15T19:10:24.805Z,5.93
2023-03-15T19:12:53.144Z,5.65
2023-03-15T19:15:22.570Z,10.32
2023-03-15T19:17:54.429Z,5.82
2023-03-15T19:20:23.107Z,7.43
2023-03-15T19:22:52.424Z,6.15
2023-03-15T19:25:21.107Z,7.68
2023-03-15T19:27:49.000Z,9.45
2023-03-15T19:30:20.753Z,10.85
2023-03-15T19:32:49.911Z,7.88
2023-03-15T19:35:20.356Z,11.32
2023-03-15T19:37:49.008Z,7.10
2023-03-15T19:40:18.426Z,6.40
2023-03-15T19:42:47.065Z,5.30
2023-03-15T19:45:15.406Z,8.98
2023-03-15T19:47:43.315Z,4.25
2023-03-15T19:50:13.129Z,7.70
2023-03-15T19:52:45.928Z,5.45
2023-03-15T19:55:14.421Z,9.10
2023-03-15T19:57:42.513Z,9.88
2023-03-15T20:00:12.627Z,7.47
2023-03-15T20:02:41.978Z,4.80
2023-03-15T20:05:11.035Z,10.55
2023-03-15T20:07:39.236Z,7.00
2023-03-15T20:10:10.114Z,6.85
2023-03-15T20:12:38.948Z,7.10
2023-03-15T20:15:09.998Z,6.40
2023-03-15T20:17:38.052Z,5.88
2023-03-15T20:20:10.300Z,10.57
2023-03-15T20:22:40.925Z,6.95
2023-03-15T20:25:11.253Z,5.78
2023-03-15T20:27:39.223Z,9.68
2023-03-15T20:30:08.994Z,7.82
2023-03-15T20:32:36.869Z,12.23
2023-03-15T20:35:09.007Z,14.90
2023-03-15T20:37:40.163Z,9.50
2023-03-15T20:40:12.578Z,9.98
2023-03-15T20:42:41.422Z,13.13
2023-03-15T20:45:10.727Z,8.20
2023-03-15T20:47:38.921Z,11.80
2023-03-15T20:50:07.365Z,8.68
2023-03-15T20:52:36.016Z,14.40
2023-03-15T20:55:05.848Z,9.93
2023-03-15T20:57:36.285Z,10.70
2023-03-15T21:00:12.079Z,10.73
2023-03-15T21:02:40.247Z,7.47
2023-03-15T21:05:09.270Z,9.13
2023-03-15T21:07:37.103Z,9.75
2023-03-15T21:10:05.406Z,8.18
2023-03-15T21:12:33.237Z,6.68
2023-03-15T21:15:02.692Z,7.68
2023-03-15T21:17:30.398Z,8.68
2023-03-15T21:19:58.207Z,11.98
2023-03-15T21:22:26.046Z,8.98
2023-03-15T21:24:56.201Z,7.57
2023-03-15T21:27:26.124Z,10.45
2023-03-15T21:29:54.047Z,12.85
2023-03-15T21:32:23.247Z,12.93
2023-03-15T21:34:51.055Z,11.30
2023-03-15T21:37:18.857Z,12.05
2023-03-15T21:39:46.730Z,12.90
2023-03-15T21:42:14.454Z,7.53
2023-03-15T21:44:42.242Z,15.63
2023-03-15T21:47:10.439Z,11.20
2023-03-15T21:49:40.014Z,9.90
2023-03-15T21:52:07.880Z,6.88
2023-03-15T21:54:35.614Z,12.10
2023-03-15T21:57:04.218Z,10.05
2023-03-15T21:59:32.171Z,4.72
2023-03-15T22:02:01.612Z,6.07
2023-03-15T22:04:29.602Z,7.68
2023-03-15T22:06:58.767Z,7.65
2023-03-15T22:09:26.739Z,12.30
2023-03-15T22:11:54.550Z,10.55
2023-03-15T22:14:23.090Z,17.15
2023-03-15T22:16:51.591Z,8.07
2023-03-15T22:19:19.482Z,5.65
2023-03-15T22:21:47.318Z,5.53
2023-03-15T22:24:17.357Z,9.93
2023-03-15T22:26:46.058Z,5.80
2023-03-15T22:29:13.788Z,13.18
2023-03-15T22:31:41.610Z,7.20
2023-03-15T22:34:09.336Z,10.52
2023-03-15T22:36:37.369Z,8.10
2023-03-15T22:39:05.819Z,8.60
2023-03-15T22:41:35.350Z,7.68
2023-03-15T22:44:03.115Z,10.38
2023-03-15T22:46:34.881Z,4.88
2023-03-15T22:49:03.050Z,6.18
2023-03-15T22:51:31.096Z,4.90
2023-03-15T22:53:58.879Z,3.33
2023-03-15T22:56:26.701Z,6.20
2023-03-15T22:58:56.018Z,9.10
2023-03-15T23:01:24.380Z,3.97
2023-03-15T23:03:52.257Z,9.25
2023-03-15T23:06:20.810Z,7.80
2023-03-15T23:08:48.956Z,8.65
2023-03-15T23:11:16.660Z,5.72
2023-03-15T23:13:48.267Z,6.15
2023-03-15T23:16:17.844Z,6.57
2023-03-15T23:18:45.682Z,11.95
2023-03-15T23:21:15.926Z,5.78
2023-03-15T23:23:43.932Z,8.40
2023-03-15T23:26:15.194Z,4.60
2023-03-15T23:28:43.180Z,10.82
2023-03-15T23:31:11.024Z,5.60
2023-03-15T23:33:40.174Z,5.95
2023-03-15T23:36:08.821Z,5.03
2023-03-15T23:38:36.578Z,6.00
2023-03-15T23:41:05.218Z,7.07
2023-03-15T23:43:33.721Z,11.02
2023-03-15T23:46:03.584Z,6.30
2023-03-15T23:48:35.644Z,4.47
2023-03-15T23:51:05.064Z,5.25
2023-03-15T23:53:33.492Z,9.18
2023-03-15T23:56:01.414Z,5.90
2023-03-15T23:58:29.110Z,3.60
